sensor_id;sensor_type;location;lat;lon;timestamp;P1;durP1;ratioP1;P2;durP2;ratioP2
24681;SDS011;12802;53.390;-2.328;2023-07-24T00:01:03;8.98;;;6.30;;
24681;SDS011;12802;53.390;-2.328;2023-07-24T00:03:30;7.95;;;5.70;;
24681;SDS011;12802;53.390;-2.328;2023-07-24T00:05:59;8.68;;;5.93;;
24681;SDS011;12802;53.390;-2.328;2023-07-24T00:08:25;10.70;;;5.75;;
24681;SDS011;12802;53.390;-2.328;2023-07-24T00:10:51;7.25;;;5.28;;
24681;SDS011;12802;53.390;-2.328;2023-07-24T00:13:17;16.00;;;6.75;;
24681;SDS011;12802;53.390;-2.328;2023-07-24T00:15:43;11.98;;;5.97;;
24681;SDS011;12802;53.390;-2.328;2023-07-24T00:18:09;14.15;;;6.90;;
24681;SDS011;12802;53.390;-2.328;2023-07-24T00:20:35;9.35;;;5.80;;
24681;SDS011;12802;53.390;-2.328;2023-07-24T00:23:02;12.32;;;6.20;;
24681;SDS011;12802;53.390;-2.328;2023-07-24T00:25:28;13.55;;;5.75;;
24681;SDS011;12802;53.390;-2.328;2023-07-24T00:27:54;11.38;;;6.30;;
24681;SDS011;12802;53.390;-2.328;2023-07-24T00:30:20;11.63;;;6.80;;
24681;SDS011;12802;53.390;-2.328;2023-07-24T00:32:46;10.18;;;6.20;;
24681;SDS011;12802;53.390;-2.328;2023-07-24T00:35:11;14.88;;;6.70;;
24681;SDS011;12802;53.390;-2.328;2023-07-24T00:37:37;11.43;;;6.50;;
24681;SDS011;12802;53.390;-2.328;2023-07-24T00:40:03;13.05;;;6.18;;
24681;SDS011;12802;53.390;-2.328;2023-07-24T00:42:29;10.10;;;6.32;;
24681;SDS011;12802;53.390;-2.328;2023-07-24T00:44:57;10.50;;;5.72;;
24681;SDS011;12802;53.390;-2.328;2023-07-24T00:47:27;12.57;;;6.13;;
24681;SDS011;12802;53.390;-2.328;2023-07-24T00:49:53;8.98;;;5.60;;
24681;SDS011;12802;53.390;-2.328;2023-07-24T00:52:20;17.48;;;6.43;;
24681;SDS011;12802;53.390;-2.328;2023-07-24T00:54:46;14.00;;;7.05;;
24681;SDS011;12802;53.390;-2.328;2023-07-24T00:57:12;13.48;;;6.10;;
24681;SDS011;12802;53.390;-2.328;2023-07-24T00:59:38;9.27;;;5.93;;
24681;SDS011;12802;53.390;-2.328;2023-07-24T01:02:04;9.20;;;6.25;;
24681;SDS011;12802;53.390;-2.328;2023-07-24T01:04:30;12.10;;;6.55;;
24681;SDS011;12802;53.390;-2.328;2023-07-24T01:06:57;9.52;;;5.82;;
24681;SDS011;12802;53.390;-2.328;2023-07-24T01:09:22;11.10;;;6.28;;
24681;SDS011;12802;53.390;-2.328;2023-07-24T01:11:56;15.50;;;6.03;;
24681;SDS011;12802;53.390;-2.328;2023-07-24T01:14:38;10.52;;;6.13;;
24681;SDS011;12802;53.390;-2.328;2023-07-24T01:17:30;9.00;;;5.30;;
24681;SDS011;12802;53.390;-2.328;2023-07-24T01:19:59;7.30;;;5.80;;
24681;SDS011;12802;53.390;-2.328;2023-07-24T01:27:26;12.00;;;6.40;;
24681;SDS011;12802;53.390;-2.328;2023-07-24T01:29:52;10.13;;;6.28;;
24681;SDS011;12802;53.390;-2.328;2023-07-24T01:32:19;8.35;;;5.70;;
24681;SDS011;12802;53.390;-2.328;2023-07-24T01:34:46;8.43;;;5.55;;
24681;SDS011;12802;53.390;-2.328;2023-07-24T01:37:12;8.73;;;6.05;;
24681;SDS011;12802;53.390;-2.328;2023-07-24T01:39:42;8.52;;;5.90;;
24681;SDS011;12802;53.390;-2.328;2023-07-24T01:42:09;8.00;;;5.57;;
24681;SDS011;12802;53.390;-2.328;2023-07-24T01:44:36;8.18;;;5.90;;
24681;SDS011;12802;53.390;-2.328;2023-07-24T01:47:02;10.07;;;6.25;;
24681;SDS011;12802;53.390;-2.328;2023-07-24T01:49:27;10.07;;;6.70;;
24681;SDS011;12802;53.390;-2.328;2023-07-24T01:51:53;12.73;;;6.45;;
24681;SDS011;12802;53.390;-2.328;2023-07-24T01:54:19;10.35;;;6.50;;
24681;SDS011;12802;53.390;-2.328;2023-07-24T01:56:45;13.07;;;6.65;;
24681;SDS011;12802;53.390;-2.328;2023-07-24T01:59:10;8.85;;;6.63;;
24681;SDS011;12802;53.390;-2.328;2023-07-24T02:01:36;8.63;;;6.15;;
24681;SDS011;12802;53.390;-2.328;2023-07-24T02:04:02;12.80;;;6.85;;
24681;SDS011;12802;53.390;-2.328;2023-07-24T02:06:28;9.50;;;6.40;;
24681;SDS011;12802;53.390;-2.328;2023-07-24T02:08:53;8.82;;;5.97;;
24681;SDS011;12802;53.390;-2.328;2023-07-24T02:11:19;13.30;;;7.38;;
24681;SDS011;12802;53.390;-2.328;2023-07-24T02:13:45;10.02;;;6.43;;
24681;SDS011;12802;53.390;-2.328;2023-07-24T02:16:13;13.38;;;7.30;;
24681;SDS011;12802;53.390;-2.328;2023-07-24T02:18:40;10.18;;;6.68;;
24681;SDS011;12802;53.390;-2.328;2023-07-24T02:21:07;18.45;;;7.90;;
24681;SDS011;12802;53.390;-2.328;2023-07-24T02:23:33;11.50;;;6.47;;
24681;SDS011;12802;53.390;-2.328;2023-07-24T02:26:00;11.73;;;6.32;;
24681;SDS011;12802;53.390;-2.328;2023-07-24T02:28:25;12.00;;;6.38;;
24681;SDS011;12802;53.390;-2.328;2023-07-24T02:30:51;12.18;;;6.78;;
24681;SDS011;12802;53.390;-2.328;2023-07-24T02:33:21;11.75;;;6.63;;
24681;SDS011;12802;53.390;-2.328;2023-07-24T02:35:48;11.07;;;6.85;;
24681;SDS011;12802;53.390;-2.328;2023-07-24T02:38:16;11.93;;;6.60;;
24681;SDS011;12802;53.390;-2.328;2023-07-24T02:40:42;11.00;;;6.72;;
24681;SDS011;12802;53.390;-2.328;2023-07-24T02:43:09;11.23;;;7.00;;
24681;SDS011;12802;53.390;-2.328;2023-07-24T02:45:35;13.88;;;8.07;;
24681;SDS011;12802;53.390;-2.328;2023-07-24T02:48:02;9.07;;;6.82;;
24681;SDS011;12802;53.390;-2.328;2023-07-24T02:50:28;12.18;;;7.47;;
24681;SDS011;12802;53.390;-2.328;2023-07-24T02:52:54;11.60;;;7.80;;
24681;SDS011;12802;53.390;-2.328;2023-07-24T02:55:20;11.05;;;7.85;;
24681;SDS011;12802;53.390;-2.328;2023-07-24T02:57:46;11.13;;;7.10;;
24681;SDS011;12802;53.390;-2.328;2023-07-24T03:00:12;9.70;;;7.85;;
24681;SDS011;12802;53.390;-2.328;2023-07-24T03:02:38;12.10;;;7.80;;
24681;SDS011;12802;53.390;-2.328;2023-07-24T03:05:04;11.63;;;6.88;;
24681;SDS011;12802;53.390;-2.328;2023-07-24T03:07:31;10.20;;;6.60;;
24681;SDS011;12802;53.390;-2.328;2023-07-24T03:09:57;18.55;;;8.20;;
24681;SDS011;12802;53.390;-2.328;2023-07-24T03:12:23;13.48;;;7.35;;
24681;SDS011;12802;53.390;-2.328;2023-07-24T03:14:48;15.13;;;7.57;;
24681;SDS011;12802;53.390;-2.328;2023-07-24T03:17:14;11.93;;;7.80;;
24681;SDS011;12802;53.390;-2.328;2023-07-24T03:19:40;15.15;;;7.65;;
24681;SDS011;12802;53.390;-2.328;2023-07-24T03:22:06;13.98;;;7.45;;
24681;SDS011;12802;53.390;-2.328;2023-07-24T03:24:32;12.45;;;7.97;;
24681;SDS011;12802;53.390;-2.328;2023-07-24T03:26:59;15.10;;;7.68;;
24681;SDS011;12802;53.390;-2.328;2023-07-24T03:29:25;12.63;;;8.02;;
24681;SDS011;12802;53.390;-2.328;2023-07-24T03:31:52;12.30;;;7.05;;
24681;SDS011;12802;53.390;-2.328;2023-07-24T03:34:18;13.30;;;7.03;;
24681;SDS011;12802;53.390;-2.328;2023-07-24T03:36:43;11.60;;;7.78;;
24681;SDS011;12802;53.390;-2.328;2023-07-24T03:39:09;14.60;;;7.68;;
24681;SDS011;12802;53.390;-2.328;2023-07-24T03:41:38;12.95;;;7.63;;
24681;SDS011;12802;53.390;-2.328;2023-07-24T03:44:04;10.70;;;7.18;;
24681;SDS011;12802;53.390;-2.328;2023-07-24T03:46:31;14.05;;;7.93;;
24681;SDS011;12802;53.390;-2.328;2023-07-24T03:48:58;11.40;;;7.45;;
24681;SDS011;12802;53.390;-2.328;2023-07-24T03:51:23;16.73;;;7.97;;
24681;SDS011;12802;53.390;-2.328;2023-07-24T03:53:49;11.52;;;7.28;;
24681;SDS011;12802;53.390;-2.328;2023-07-24T03:56:15;11.65;;;6.90;;
24681;SDS011;12802;53.390;-2.328;2023-07-24T03:58:41;16.33;;;7.88;;
24681;SDS011;12802;53.390;-2.328;2023-07-24T04:01:07;16.77;;;7.80;;
24681;SDS011;12802;53.390;-2.328;2023-07-24T04:03:34;14.40;;;7.22;;
24681;SDS011;12802;53.390;-2.328;2023-07-24T04:06:00;11.38;;;7.15;;
24681;SDS011;12802;53.390;-2.328;2023-07-24T04:08:26;15.95;;;7.30;;
24681;SDS011;12802;53.390;-2.328;2023-07-24T04:10:51;18.55;;;7.10;;
24681;SDS011;12802;53.390;-2.328;2023-07-24T04:13:18;15.43;;;7.25;;
24681;SDS011;12802;53.390;-2.328;2023-07-24T04:15:43;16.75;;;7.65;;
24681;SDS011;12802;53.390;-2.328;2023-07-24T04:18:09;19.45;;;8.18;;
24681;SDS011;12802;53.390;-2.328;2023-07-24T04:20:35;20.73;;;7.93;;
24681;SDS011;12802;53.390;-2.328;2023-07-24T04:23:02;16.60;;;7.55;;
24681;SDS011;12802;53.390;-2.328;2023-07-24T04:25:27;16.30;;;7.32;;
24681;SDS011;12802;53.390;-2.328;2023-07-24T04:27:53;15.35;;;8.07;;
24681;SDS011;12802;53.390;-2.328;2023-07-24T04:30:19;15.32;;;7.10;;
24681;SDS011;12802;53.390;-2.328;2023-07-24T04:32:44;17.73;;;7.60;;
24681;SDS011;12802;53.390;-2.328;2023-07-24T04:35:11;18.85;;;7.28;;
24681;SDS011;12802;53.390;-2.328;2023-07-24T04:37:37;17.60;;;7.55;;
24681;SDS011;12802;53.390;-2.328;2023-07-24T04:40:03;12.70;;;7.20;;
24681;SDS011;12802;53.390;-2.328;2023-07-24T04:42:30;20.55;;;7.60;;
24681;SDS011;12802;53.390;-2.328;2023-07-24T04:44:56;18.40;;;7.57;;
24681;SDS011;12802;53.390;-2.328;2023-07-24T04:47:22;21.13;;;8.07;;
24681;SDS011;12802;53.390;-2.328;2023-07-24T04:49:47;16.80;;;7.75;;
24681;SDS011;12802;53.390;-2.328;2023-07-24T04:52:13;12.68;;;7.63;;
24681;SDS011;12802;53.390;-2.328;2023-07-24T04:54:39;19.95;;;7.38;;
24681;SDS011;12802;53.390;-2.328;2023-07-24T04:57:04;20.92;;;7.50;;
24681;SDS011;12802;53.390;-2.328;2023-07-24T04:59:30;17.10;;;7.35;;
24681;SDS011;12802;53.390;-2.328;2023-07-24T05:01:56;16.30;;;6.43;;
24681;SDS011;12802;53.390;-2.328;2023-07-24T05:04:22;20.00;;;8.05;;
24681;SDS011;12802;53.390;-2.328;2023-07-24T05:06:47;16.15;;;7.25;;
24681;SDS011;12802;53.390;-2.328;2023-07-24T05:09:13;18.63;;;8.27;;
24681;SDS011;12802;53.390;-2.328;2023-07-24T05:11:40;16.75;;;8.10;;
24681;SDS011;12802;53.390;-2.328;2023-07-24T05:14:08;12.63;;;6.83;;
24681;SDS011;12802;53.390;-2.328;2023-07-24T05:16:34;16.63;;;7.00;;
24681;SDS011;12802;53.390;-2.328;2023-07-24T05:18:59;21.20;;;6.75;;
24681;SDS011;12802;53.390;-2.328;2023-07-24T05:21:25;15.00;;;7.15;;
24681;SDS011;12802;53.390;-2.328;2023-07-24T05:23:51;16.77;;;6.70;;
24681;SDS011;12802;53.390;-2.328;2023-07-24T05:26:16;16.33;;;7.45;;
24681;SDS011;12802;53.390;-2.328;2023-07-24T05:28:42;14.20;;;6.28;;
24681;SDS011;12802;53.390;-2.328;2023-07-24T05:31:08;15.63;;;6.18;;
24681;SDS011;12802;53.390;-2.328;2023-07-24T05:33:34;11.98;;;5.82;;
24681;SDS011;12802;53.390;-2.328;2023-07-24T05:36:00;18.38;;;6.43;;
24681;SDS011;12802;53.390;-2.328;2023-07-24T05:38:29;17.30;;;6.15;;
24681;SDS011;12802;53.390;-2.328;2023-07-24T05:40:56;14.98;;;6.55;;
24681;SDS011;12802;53.390;-2.328;2023-07-24T05:43:23;12.00;;;5.43;;
24681;SDS011;12802;53.390;-2.328;2023-07-24T05:45:49;10.20;;;5.70;;
24681;SDS011;12802;53.390;-2.328;2023-07-24T05:48:16;12.68;;;5.88;;
24681;SDS011;12802;53.390;-2.328;2023-07-24T05:50:42;12.52;;;6.10;;
24681;SDS011;12802;53.390;-2.328;2023-07-24T05:53:08;19.02;;;5.93;;
24681;SDS011;12802;53.390;-2.328;2023-07-24T05:55:34;15.18;;;6.30;;
24681;SDS011;12802;53.390;-2.328;2023-07-24T05:57:59;13.18;;;5.47;;
24681;SDS011;12802;53.390;-2.328;2023-07-24T06:00:25;17.25;;;6.30;;
24681;SDS011;12802;53.390;-2.328;2023-07-24T06:02:51;20.33;;;6.20;;
24681;SDS011;12802;53.390;-2.328;2023-07-24T06:05:17;12.88;;;5.70;;
24681;SDS011;12802;53.390;-2.328;2023-07-24T06:07:44;15.02;;;6.57;;
24681;SDS011;12802;53.390;-2.328;2023-07-24T06:10:13;12.27;;;5.82;;
24681;SDS011;12802;53.390;-2.328;2023-07-24T06:12:39;17.00;;;5.97;;
24681;SDS011;12802;53.390;-2.328;2023-07-24T06:15:05;15.13;;;5.75;;
24681;SDS011;12802;53.390;-2.328;2023-07-24T06:17:31;13.88;;;6.00;;
24681;SDS011;12802;53.390;-2.328;2023-07-24T06:19:57;14.30;;;5.78;;
24681;SDS011;12802;53.390;-2.328;2023-07-24T06:22:23;16.00;;;6.00;;
24681;SDS011;12802;53.390;-2.328;2023-07-24T06:24:49;22.95;;;6.10;;
24681;SDS011;12802;53.390;-2.328;2023-07-24T06:27:15;18.90;;;5.72;;
24681;SDS011;12802;53.390;-2.328;2023-07-24T06:29:41;12.85;;;5.10;;
24681;SDS011;12802;53.390;-2.328;2023-07-24T06:32:07;20.02;;;6.00;;
24681;SDS011;12802;53.390;-2.328;2023-07-24T06:34:33;12.63;;;5.18;;
24681;SDS011;12802;53.390;-2.328;2023-07-24T06:36:59;9.25;;;5.32;;
24681;SDS011;12802;53.390;-2.328;2023-07-24T06:39:25;14.65;;;5.70;;
24681;SDS011;12802;53.390;-2.328;2023-07-24T06:41:51;17.98;;;5.82;;
24681;SDS011;12802;53.390;-2.328;2023-07-24T06:44:18;11.25;;;5.32;;
24681;SDS011;12802;53.390;-2.328;2023-07-24T06:46:43;13.70;;;5.30;;
24681;SDS011;12802;53.390;-2.328;2023-07-24T06:49:09;15.15;;;5.07;;
24681;SDS011;12802;53.390;-2.328;2023-07-24T06:51:36;13.93;;;4.97;;
24681;SDS011;12802;53.390;-2.328;2023-07-24T06:54:03;12.18;;;4.82;;
24681;SDS011;12802;53.390;-2.328;2023-07-24T06:56:29;11.32;;;5.15;;
24681;SDS011;12802;53.390;-2.328;2023-07-24T06:58:55;12.27;;;4.95;;
24681;SDS011;12802;53.390;-2.328;2023-07-24T07:01:21;15.20;;;5.15;;
24681;SDS011;12802;53.390;-2.328;2023-07-24T07:03:46;14.88;;;4.97;;
24681;SDS011;12802;53.390;-2.328;2023-07-24T07:06:12;15.02;;;5.05;;
24681;SDS011;12802;53.390;-2.328;2023-07-24T07:08:38;9.95;;;4.38;;
24681;SDS011;12802;53.390;-2.328;2023-07-24T07:11:04;10.77;;;4.88;;
24681;SDS011;12802;53.390;-2.328;2023-07-24T07:13:29;14.20;;;5.28;;
24681;SDS011;12802;53.390;-2.328;2023-07-24T07:15:55;9.55;;;4.28;;
24681;SDS011;12802;53.390;-2.328;2023-07-24T07:18:21;10.45;;;4.15;;
24681;SDS011;12802;53.390;-2.328;2023-07-24T07:20:47;15.10;;;3.75;;
24681;SDS011;12802;53.390;-2.328;2023-07-24T07:23:14;13.77;;;3.92;;
24681;SDS011;12802;53.390;-2.328;2023-07-24T07:25:40;10.65;;;4.45;;
24681;SDS011;12802;53.390;-2.328;2023-07-24T07:28:08;9.10;;;3.65;;
24681;SDS011;12802;53.390;-2.328;2023-07-24T07:30:34;7.13;;;4.07;;
24681;SDS011;12802;53.390;-2.328;2023-07-24T07:33:00;11.25;;;3.90;;
24681;SDS011;12802;53.390;-2.328;2023-07-24T07:35:26;10.10;;;3.35;;
24681;SDS011;12802;53.390;-2.328;2023-07-24T07:37:52;18.23;;;3.95;;
24681;SDS011;12802;53.390;-2.328;2023-07-24T07:40:18;13.43;;;3.75;;
24681;SDS011;12802;53.390;-2.328;2023-07-24T07:42:43;15.60;;;3.83;;
24681;SDS011;12802;53.390;-2.328;2023-07-24T07:45:10;16.77;;;3.63;;
24681;SDS011;12802;53.390;-2.328;2023-07-24T07:47:36;10.77;;;3.60;;
24681;SDS011;12802;53.390;-2.328;2023-07-24T07:50:02;13.20;;;3.92;;
24681;SDS011;12802;53.390;-2.328;2023-07-24T07:52:28;9.88;;;3.72;;
24681;SDS011;12802;53.390;-2.328;2023-07-24T07:54:54;12.77;;;3.55;;
24681;SDS011;12802;53.390;-2.328;2023-07-24T07:57:19;11.48;;;3.33;;
24681;SDS011;12802;53.390;-2.328;2023-07-24T07:59:45;12.32;;;3.20;;
24681;SDS011;12802;53.390;-2.328;2023-07-24T08:02:14;11.38;;;2.90;;
24681;SDS011;12802;53.390;-2.328;2023-07-24T08:04:40;8.80;;;3.10;;
24681;SDS011;12802;53.390;-2.328;2023-07-24T08:07:06;8.07;;;2.75;;
24681;SDS011;12802;53.390;-2.328;2023-07-24T08:09:31;6.90;;;2.97;;
24681;SDS011;12802;53.390;-2.328;2023-07-24T08:11:58;10.68;;;2.92;;
24681;SDS011;12802;53.390;-2.328;2023-07-24T08:14:24;7.78;;;2.80;;
24681;SDS011;12802;53.390;-2.328;2023-07-24T08:16:50;13.07;;;3.15;;
24681;SDS011;12802;53.390;-2.328;2023-07-24T08:19:16;11.88;;;2.75;;
24681;SDS011;12802;53.390;-2.328;2023-07-24T08:21:42;7.05;;;2.58;;
24681;SDS011;12802;53.390;-2.328;2023-07-24T08:24:07;10.68;;;2.75;;
24681;SDS011;12802;53.390;-2.328;2023-07-24T08:26:33;8.30;;;2.80;;
24681;SDS011;12802;53.390;-2.328;2023-07-24T08:28:59;8.95;;;2.80;;
24681;SDS011;12802;53.390;-2.328;2023-07-24T08:31:24;6.95;;;2.65;;
24681;SDS011;12802;53.390;-2.328;2023-07-24T08:33:50;8.73;;;2.28;;
24681;SDS011;12802;53.390;-2.328;2023-07-24T08:36:16;6.88;;;2.00;;
24681;SDS011;12802;53.390;-2.328;2023-07-24T08:38:42;8.30;;;3.00;;
24681;SDS011;12802;53.390;-2.328;2023-07-24T08:41:11;5.60;;;2.42;;
24681;SDS011;12802;53.390;-2.328;2023-07-24T08:43:39;9.07;;;2.58;;
24681;SDS011;12802;53.390;-2.328;2023-07-24T08:46:06;6.53;;;2.50;;
24681;SDS011;12802;53.390;-2.328;2023-07-24T08:48:37;6.47;;;2.10;;
24681;SDS011;12802;53.390;-2.328;2023-07-24T08:51:07;8.32;;;2.83;;
24681;SDS011;12802;53.390;-2.328;2023-07-24T08:53:35;17.85;;;2.80;;
24681;SDS011;12802;53.390;-2.328;2023-07-24T08:56:03;6.57;;;2.38;;
24681;SDS011;12802;53.390;-2.328;2023-07-24T08:58:30;6.85;;;2.50;;
24681;SDS011;12802;53.390;-2.328;2023-07-24T09:00:56;6.10;;;2.45;;
24681;SDS011;12802;53.390;-2.328;2023-07-24T09:03:22;8.75;;;2.42;;
24681;SDS011;12802;53.390;-2.328;2023-07-24T09:05:49;7.80;;;2.35;;
24681;SDS011;12802;53.390;-2.328;2023-07-24T09:08:14;6.00;;;2.40;;
24681;SDS011;12802;53.390;-2.328;2023-07-24T09:10:40;7.90;;;2.40;;
24681;SDS011;12802;53.390;-2.328;2023-07-24T09:13:06;6.03;;;2.03;;
24681;SDS011;12802;53.390;-2.328;2023-07-24T09:15:39;5.38;;;2.15;;
24681;SDS011;12802;53.390;-2.328;2023-07-24T09:18:08;9.57;;;2.60;;
24681;SDS011;12802;53.390;-2.328;2023-07-24T09:20:39;3.95;;;2.17;;
24681;SDS011;12802;53.390;-2.328;2023-07-24T09:23:06;8.77;;;2.47;;
24681;SDS011;12802;53.390;-2.328;2023-07-24T09:25:33;9.48;;;2.38;;
24681;SDS011;12802;53.390;-2.328;2023-07-24T09:27:59;5.97;;;1.70;;
24681;SDS011;12802;53.390;-2.328;2023-07-24T09:30:25;5.90;;;2.30;;
24681;SDS011;12802;53.390;-2.328;2023-07-24T09:32:54;6.38;;;2.75;;
24681;SDS011;12802;53.390;-2.328;2023-07-24T09:35:20;6.20;;;2.70;;
24681;SDS011;12802;53.390;-2.328;2023-07-24T09:38:00;9.05;;;2.47;;
24681;SDS011;12802;53.390;-2.328;2023-07-24T09:40:44;6.93;;;2.03;;
24681;SDS011;12802;53.390;-2.328;2023-07-24T09:43:17;4.53;;;2.50;;
24681;SDS011;12802;53.390;-2.328;2023-07-24T09:45:44;8.45;;;2.05;;
24681;SDS011;12802;53.390;-2.328;2023-07-24T09:48:11;8.88;;;1.90;;
24681;SDS011;12802;53.390;-2.328;2023-07-24T09:50:40;6.90;;;2.20;;
24681;SDS011;12802;53.390;-2.328;2023-07-24T09:53:10;4.70;;;1.90;;
24681;SDS011;12802;53.390;-2.328;2023-07-24T09:56:15;5.57;;;1.58;;
24681;SDS011;12802;53.390;-2.328;2023-07-24T09:58:36;6.57;;;1.90;;
24681;SDS011;12802;53.390;-2.328;2023-07-24T10:01:04;6.32;;;1.85;;
24681;SDS011;12802;53.390;-2.328;2023-07-24T10:03:31;9.45;;;2.10;;
24681;SDS011;12802;53.390;-2.328;2023-07-24T10:06:03;3.78;;;1.50;;
24681;SDS011;12802;53.390;-2.328;2023-07-24T10:08:29;4.63;;;1.67;;
24681;SDS011;12802;53.390;-2.328;2023-07-24T10:10:56;6.53;;;1.80;;
24681;SDS011;12802;53.390;-2.328;2023-07-24T10:13:26;6.25;;;1.83;;
24681;SDS011;12802;53.390;-2.328;2023-07-24T10:15:52;7.18;;;2.25;;
24681;SDS011;12802;53.390;-2.328;2023-07-24T10:18:25;5.03;;;1.90;;
24681;SDS011;12802;53.390;-2.328;2023-07-24T10:20:59;3.70;;;1.70;;
24681;SDS011;12802;53.390;-2.328;2023-07-24T10:23:29;4.00;;;1.80;;
24681;SDS011;12802;53.390;-2.328;2023-07-24T10:25:55;7.95;;;1.90;;
24681;SDS011;12802;53.390;-2.328;2023-07-24T10:28:30;4.65;;;1.75;;
24681;SDS011;12802;53.390;-2.328;2023-07-24T10:30:57;4.07;;;1.85;;
24681;SDS011;12802;53.390;-2.328;2023-07-24T10:33:24;7.00;;;1.98;;
24681;SDS011;12802;53.390;-2.328;2023-07-24T10:35:54;5.15;;;1.98;;
24681;SDS011;12802;53.390;-2.328;2023-07-24T10:38:31;6.80;;;1.60;;
24681;SDS011;12802;53.390;-2.328;2023-07-24T10:41:01;8.02;;;1.98;;
24681;SDS011;12802;53.390;-2.328;2023-07-24T10:45:53;5.07;;;1.60;;
24681;SDS011;12802;53.390;-2.328;2023-07-24T10:48:21;4.03;;;1.40;;
24681;SDS011;12802;53.390;-2.328;2023-07-24T10:50:48;4.38;;;1.45;;
24681;SDS011;12802;53.390;-2.328;2023-07-24T10:53:16;7.18;;;1.70;;
24681;SDS011;12802;53.390;-2.328;2023-07-24T10:55:44;8.05;;;2.38;;
24681;SDS011;12802;53.390;-2.328;2023-07-24T10:58:12;5.95;;;2.20;;
24681;SDS011;12802;53.390;-2.328;2023-07-24T11:00:39;4.75;;;2.22;;
24681;SDS011;12802;53.390;-2.328;2023-07-24T11:03:09;5.72;;;1.60;;
24681;SDS011;12802;53.390;-2.328;2023-07-24T11:05:43;5.70;;;1.90;;
24681;SDS011;12802;53.390;-2.328;2023-07-24T11:08:11;3.65;;;1.40;;
24681;SDS011;12802;53.390;-2.328;2023-07-24T11:10:47;7.00;;;1.88;;
24681;SDS011;12802;53.390;-2.328;2023-07-24T11:13:17;6.15;;;1.83;;
24681;SDS011;12802;53.390;-2.328;2023-07-24T11:15:48;7.00;;;1.70;;
24681;SDS011;12802;53.390;-2.328;2023-07-24T11:18:14;4.18;;;1.75;;
24681;SDS011;12802;53.390;-2.328;2023-07-24T11:20:45;4.30;;;1.92;;
24681;SDS011;12802;53.390;-2.328;2023-07-24T11:23:18;4.38;;;1.88;;
24681;SDS011;12802;53.390;-2.328;2023-07-24T11:25:44;8.25;;;1.65;;
24681;SDS011;12802;53.390;-2.328;2023-07-24T11:28:11;9.75;;;1.80;;
24681;SDS011;12802;53.390;-2.328;2023-07-24T11:30:38;6.28;;;1.90;;
24681;SDS011;12802;53.390;-2.328;2023-07-24T11:33:05;5.65;;;1.75;;
24681;SDS011;12802;53.390;-2.328;2023-07-24T11:35:33;5.10;;;1.80;;
24681;SDS011;12802;53.390;-2.328;2023-07-24T11:38:00;5.30;;;1.95;;
24681;SDS011;12802;53.390;-2.328;2023-07-24T11:40:30;7.03;;;2.20;;
24681;SDS011;12802;53.390;-2.328;2023-07-24T11:43:16;4.32;;;1.73;;
24681;SDS011;12802;53.390;-2.328;2023-07-24T11:45:44;3.38;;;1.58;;
24681;SDS011;12802;53.390;-2.328;2023-07-24T11:48:13;4.03;;;1.63;;
24681;SDS011;12802;53.390;-2.328;2023-07-24T11:50:43;3.75;;;1.60;;
24681;SDS011;12802;53.390;-2.328;2023-07-24T11:53:28;8.13;;;2.20;;
24681;SDS011;12802;53.390;-2.328;2023-07-24T11:55:57;7.15;;;2.08;;
24681;SDS011;12802;53.390;-2.328;2023-07-24T11:58:28;8.25;;;1.90;;
24681;SDS011;12802;53.390;-2.328;2023-07-24T12:00:55;7.18;;;3.13;;
24681;SDS011;12802;53.390;-2.328;2023-07-24T12:03:25;12.90;;;8.30;;
24681;SDS011;12802;53.390;-2.328;2023-07-24T12:05:52;10.38;;;5.65;;
24681;SDS011;12802;53.390;-2.328;2023-07-24T12:08:29;4.80;;;1.58;;
24681;SDS011;12802;53.390;-2.328;2023-07-24T12:10:56;4.80;;;1.80;;
24681;SDS011;12802;53.390;-2.328;2023-07-24T12:13:22;5.20;;;1.50;;
24681;SDS011;12802;53.390;-2.328;2023-07-24T12:15:48;4.25;;;1.48;;
24681;SDS011;12802;53.390;-2.328;2023-07-24T12:18:14;3.55;;;1.30;;
24681;SDS011;12802;53.390;-2.328;2023-07-24T12:20:40;4.78;;;1.60;;
24681;SDS011;12802;53.390;-2.328;2023-07-24T12:23:06;4.07;;;1.48;;
24681;SDS011;12802;53.390;-2.328;2023-07-24T12:25:32;3.83;;;1.67;;
24681;SDS011;12802;53.390;-2.328;2023-07-24T12:27:58;4.45;;;1.42;;
24681;SDS011;12802;53.390;-2.328;2023-07-24T12:30:23;4.63;;;1.50;;
24681;SDS011;12802;53.390;-2.328;2023-07-24T12:32:49;5.78;;;2.03;;
24681;SDS011;12802;53.390;-2.328;2023-07-24T12:35:15;5.60;;;2.38;;
24681;SDS011;12802;53.390;-2.328;2023-07-24T12:37:41;4.72;;;1.90;;
24681;SDS011;12802;53.390;-2.328;2023-07-24T12:40:08;3.67;;;1.38;;
24681;SDS011;12802;53.390;-2.328;2023-07-24T12:42:34;2.38;;;1.45;;
24681;SDS011;12802;53.390;-2.328;2023-07-24T12:45:00;5.68;;;1.45;;
24681;SDS011;12802;53.390;-2.328;2023-07-24T12:47:28;5.60;;;1.38;;
24681;SDS011;12802;53.390;-2.328;2023-07-24T12:49:55;5.28;;;1.40;;
24681;SDS011;12802;53.390;-2.328;2023-07-24T12:52:21;3.85;;;1.77;;
24681;SDS011;12802;53.390;-2.328;2023-07-24T12:54:47;4.30;;;1.60;;
24681;SDS011;12802;53.390;-2.328;2023-07-24T12:57:13;4.10;;;1.77;;
24681;SDS011;12802;53.390;-2.328;2023-07-24T12:59:38;5.60;;;2.00;;
24681;SDS011;12802;53.390;-2.328;2023-07-24T13:02:04;3.22;;;1.70;;
24681;SDS011;12802;53.390;-2.328;2023-07-24T13:04:31;3.22;;;1.50;;
24681;SDS011;12802;53.390;-2.328;2023-07-24T13:06:57;5.10;;;1.83;;
24681;SDS011;12802;53.390;-2.328;2023-07-24T13:09:24;4.38;;;1.70;;
24681;SDS011;12802;53.390;-2.328;2023-07-24T13:11:50;3.25;;;1.52;;
24681;SDS011;12802;53.390;-2.328;2023-07-24T13:14:19;2.97;;;1.23;;
24681;SDS011;12802;53.390;-2.328;2023-07-24T13:16:45;5.18;;;1.40;;
24681;SDS011;12802;53.390;-2.328;2023-07-24T13:19:11;8.02;;;1.50;;
24681;SDS011;12802;53.390;-2.328;2023-07-24T13:21:37;3.78;;;1.60;;
24681;SDS011;12802;53.390;-2.328;2023-07-24T13:24:05;3.55;;;1.45;;
24681;SDS011;12802;53.390;-2.328;2023-07-24T13:26:32;3.53;;;1.50;;
24681;SDS011;12802;53.390;-2.328;2023-07-24T13:28:58;2.90;;;1.55;;
24681;SDS011;12802;53.390;-2.328;2023-07-24T13:31:24;5.80;;;1.55;;
24681;SDS011;12802;53.390;-2.328;2023-07-24T13:33:50;6.65;;;1.25;;
24681;SDS011;12802;53.390;-2.328;2023-07-24T13:36:16;1.70;;;1.23;;
24681;SDS011;12802;53.390;-2.328;2023-07-24T13:38:42;2.00;;;1.20;;
24681;SDS011;12802;53.390;-2.328;2023-07-24T13:41:07;4.43;;;1.13;;
24681;SDS011;12802;53.390;-2.328;2023-07-24T13:43:33;3.85;;;1.40;;
24681;SDS011;12802;53.390;-2.328;2023-07-24T13:45:59;4.10;;;1.42;;
24681;SDS011;12802;53.390;-2.328;2023-07-24T13:48:28;2.65;;;1.33;;
24681;SDS011;12802;53.390;-2.328;2023-07-24T13:50:54;4.00;;;1.48;;
24681;SDS011;12802;53.390;-2.328;2023-07-24T13:53:20;7.60;;;1.42;;
24681;SDS011;12802;53.390;-2.328;2023-07-24T13:55:47;2.83;;;1.17;;
24681;SDS011;12802;53.390;-2.328;2023-07-24T13:58:12;3.63;;;1.35;;
24681;SDS011;12802;53.390;-2.328;2023-07-24T14:00:38;4.22;;;1.40;;
24681;SDS011;12802;53.390;-2.328;2023-07-24T14:03:04;5.85;;;1.15;;
24681;SDS011;12802;53.390;-2.328;2023-07-24T14:05:30;4.30;;;1.20;;
24681;SDS011;12802;53.390;-2.328;2023-07-24T14:07:56;3.53;;;1.30;;
24681;SDS011;12802;53.390;-2.328;2023-07-24T14:10:22;6.40;;;1.30;;
24681;SDS011;12802;53.390;-2.328;2023-07-24T14:12:48;3.95;;;1.42;;
24681;SDS011;12802;53.390;-2.328;2023-07-24T14:15:14;3.85;;;1.70;;
24681;SDS011;12802;53.390;-2.328;2023-07-24T14:17:40;8.02;;;1.65;;
24681;SDS011;12802;53.390;-2.328;2023-07-24T14:20:06;6.72;;;1.60;;
24681;SDS011;12802;53.390;-2.328;2023-07-24T14:22:32;3.35;;;1.33;;
24681;SDS011;12802;53.390;-2.328;2023-07-24T14:24:59;4.10;;;1.45;;
24681;SDS011;12802;53.390;-2.328;2023-07-24T14:27:25;5.88;;;1.60;;
24681;SDS011;12802;53.390;-2.328;2023-07-24T14:29:51;6.15;;;1.50;;
24681;SDS011;12802;53.390;-2.328;2023-07-24T14:32:18;6.72;;;1.65;;
24681;SDS011;12802;53.390;-2.328;2023-07-24T14:34:47;5.97;;;1.83;;